Time;durP1;ratioP1;P1;durP2;ratioP2;P2;SDS_P1;SDS_P2;PMS_P1;PMS_P2;Temp;Humidity;BMP_temperature;BMP_pressure;BME280_temperature;BME280_humidity;BME280_pressure;Samples;Min_cycle;Max_cycle;Signal;HPM_P1;HPM_P2
2021/10/25 00:02:03;;;;;;;10.97;3.70;;;;;;;;;;5100498;28;20488;-74
2021/10/25 00:04:33;;;;;;;8.87;3.47;;;;;;;;;;5099215;28;20455;-74
2021/10/25 00:07:01;;;;;;;8.10;3.17;;;;;;;;;;5100283;28;20451;-74
2021/10/25 00:09:29;;;;;;;5.83;3.43;;;;;;;;;;5098736;28;21094;-74
2021/10/25 00:11:57;;;;;;;18.67;3.67;;;;;;;;;;5099287;28;20530;-74
2021/10/25 00:14:25;;;;;;;8.03;2.90;;;;;;;;;;5099324;28;20467;-74
2021/10/25 00:16:53;;;;;;;5.20;3.17;;;;;;;;;;5099292;28;20912;-74
2021/10/25 00:19:21;;;;;;;4.73;3.00;;;;;;;;;;5099044;28;20792;-74
2021/10/25 00:21:51;;;;;;;5.37;2.57;;;;;;;;;;5098904;28;20487;-74
2021/10/25 00:24:18;;;;;;;7.40;3.30;;;;;;;;;;5099422;28;20468;-74
2021/10/25 00:26:46;;;;;;;9.87;2.67;;;;;;;;;;5099036;28;20447;-74
2021/10/25 00:29:14;;;;;;;4.37;2.53;;;;;;;;;;5098953;28;20486;-73
2021/10/25 00:31:42;;;;;;;6.03;3.33;;;;;;;;;;5098779;28;20839;-74
2021/10/25 00:34:11;;;;;;;4.27;2.77;;;;;;;;;;5099003;28;20462;-74
2021/10/25 00:36:39;;;;;;;4.47;2.73;;;;;;;;;;5099115;28;20458;-74
2021/10/25 00:39:12;;;;;;;6.33;2.50;;;;;;;;;;5098593;28;20773;-74
2021/10/25 00:41:39;;;;;;;10.77;4.00;;;;;;;;;;5099248;28;20475;-74
2021/10/25 00:44:07;;;;;;;6.33;3.13;;;;;;;;;;5098892;28;20455;-74
2021/10/25 00:46:35;;;;;;;4.77;2.63;;;;;;;;;;5098852;28;20462;-74
2021/10/25 00:49:03;;;;;;;4.73;2.57;;;;;;;;;;5098669;28;20463;-74
2021/10/25 00:51:34;;;;;;;4.87;2.60;;;;;;;;;;5097751;28;20871;-74
2021/10/25 00:54:01;;;;;;;7.83;3.40;;;;;;;;;;5098417;28;20570;-74
2021/10/25 00:56:32;;;;;;;6.10;3.70;;;;;;;;;;5099035;28;20498;-74
2021/10/25 00:59:00;;;;;;;3.97;2.87;;;;;;;;;;5098149;28;20498;-74
2021/10/25 01:01:28;;;;;;;4.83;3.63;;;;;;;;;;5098738;28;20487;-74
2021/10/25 01:03:55;;;;;;;6.30;3.13;;;;;;;;;;5098612;28;20532;-74
2021/10/25 01:06:23;;;;;;;4.60;2.40;;;;;;;;;;5098445;28;20867;-74
2021/10/25 01:08:52;;;;;;;5.10;3.30;;;;;;;;;;5098821;28;20791;-74
2021/10/25 01:11:23;;;;;;;8.03;3.20;;;;;;;;;;5098005;28;20533;-74
2021/10/25 01:13:55;;;;;;;9.40;4.93;;;;;;;;;;5098382;28;20451;-74
2021/10/25 01:16:23;;;;;;;4.70;3.20;;;;;;;;;;5097592;28;20459;-74
2021/10/25 01:18:51;;;;;;;4.07;2.90;;;;;;;;;;5097930;28;20498;-73
2021/10/25 01:21:20;;;;;;;4.97;2.83;;;;;;;;;;5097641;28;20491;-74
2021/10/25 01:23:48;;;;;;;7.50;3.00;;;;;;;;;;5097999;28;20447;-74
2021/10/25 01:26:16;;;;;;;5.40;3.03;;;;;;;;;;5099001;28;20768;-74
2021/10/25 01:28:44;;;;;;;6.90;3.20;;;;;;;;;;5098037;28;20482;-74
2021/10/25 01:31:12;;;;;;;5.87;3.40;;;;;;;;;;5098164;28;20840;-74
2021/10/25 01:33:41;;;;;;;4.30;2.57;;;;;;;;;;5097700;28;20448;-74
2021/10/25 01:36:13;;;;;;;4.90;3.03;;;;;;;;;;5097811;28;20463;-74
2021/10/25 01:38:45;;;;;;;8.00;3.40;;;;;;;;;;5097988;28;20755;-74
2021/10/25 01:41:14;;;;;;;3.43;2.60;;;;;;;;;;5097597;28;20566;-75
2021/10/25 01:43:42;;;;;;;5.97;3.00;;;;;;;;;;5097069;28;20751;-74
2021/10/25 01:46:10;;;;;;;6.27;3.50;;;;;;;;;;5097545;28;20525;-74
2021/10/25 01:48:38;;;;;;;4.73;2.80;;;;;;;;;;5097163;28;20447;-74
2021/10/25 01:51:06;;;;;;;5.73;3.20;;;;;;;;;;5097792;28;20448;-74
2021/10/25 01:53:37;;;;;;;5.30;3.73;;;;;;;;;;5097748;28;20489;-74
2021/10/25 01:56:07;;;;;;;8.93;3.40;;;;;;;;;;5097706;28;20443;-74
2021/10/25 01:58:35;;;;;;;9.53;3.50;;;;;;;;;;5097981;28;20879;-74
2021/10/25 02:01:04;;;;;;;5.67;2.70;;;;;;;;;;5096889;28;20519;-74
2021/10/25 02:03:36;;;;;;;4.70;2.67;;;;;;;;;;5098077;28;20755;-74
2021/10/25 02:06:04;;;;;;;3.83;2.70;;;;;;;;;;5097593;28;20526;-73
2021/10/25 02:08:32;;;;;;;5.07;3.20;;;;;;;;;;5097555;28;20554;-74
2021/10/25 02:11:00;;;;;;;4.43;2.43;;;;;;;;;;5097077;28;20451;-74
2021/10/25 02:13:30;;;;;;;5.03;2.77;;;;;;;;;;5097544;28;20460;-73
2021/10/25 02:15:58;;;;;;;7.33;3.33;;;;;;;;;;5097073;28;20463;-73
2021/10/25 02:18:26;;;;;;;4.53;3.23;;;;;;;;;;5097264;28;20740;-74
2021/10/25 02:20:54;;;;;;;11.00;3.40;;;;;;;;;;5097243;28;20818;-74
2021/10/25 02:23:21;;;;;;;7.63;3.20;;;;;;;;;;5097208;28;20559;-74
2021/10/25 02:25:51;;;;;;;3.07;2.30;;;;;;;;;;5097512;28;20447;-74
2021/10/25 02:28:19;;;;;;;3.27;2.50;;;;;;;;;;5096209;28;20466;-74
2021/10/25 02:30:49;;;;;;;4.40;2.63;;;;;;;;;;5096845;28;20459;-74
2021/10/25 02:33:18;;;;;;;5.50;3.07;;;;;;;;;;5097281;28;20521;-74
2021/10/25 02:35:45;;;;;;;6.47;2.97;;;;;;;;;;5096831;28;20546;-74
2021/10/25 02:38:13;;;;;;;4.10;2.93;;;;;;;;;;5096994;28;20455;-74
2021/10/25 02:40:44;;;;;;;4.90;2.57;;;;;;;;;;5096359;28;20486;-74
2021/10/25 02:43:12;;;;;;;4.30;2.30;;;;;;;;;;5096290;28;20456;-74
2021/10/25 02:45:43;;;;;;;5.73;3.23;;;;;;;;;;5096551;28;20462;-74
2021/10/25 02:48:15;;;;;;;4.80;2.20;;;;;;;;;;5096568;28;20559;-74
2021/10/25 02:50:43;;;;;;;4.53;2.33;;;;;;;;;;5096044;28;20471;-74
2021/10/25 02:53:14;;;;;;;4.60;3.10;;;;;;;;;;5096799;28;20560;-74
2021/10/25 02:55:42;;;;;;;3.87;2.60;;;;;;;;;;5096548;28;20700;-73
2021/10/25 02:58:10;;;;;;;6.63;3.27;;;;;;;;;;5096843;28;20852;-74
2021/10/25 03:00:38;;;;;;;5.70;2.93;;;;;;;;;;5096563;28;20448;-74
2021/10/25 03:03:05;;;;;;;4.00;2.60;;;;;;;;;;5096595;28;20745;-73
2021/10/25 03:05:35;;;;;;;3.67;2.00;;;;;;;;;;5096925;28;20444;-74
2021/10/25 03:08:03;;;;;;;7.40;2.80;;;;;;;;;;5096400;28;20455;-74
2021/10/25 03:10:32;;;;;;;9.40;3.17;;;;;;;;;;5096371;28;20516;-74
2021/10/25 03:12:59;;;;;;;6.10;2.93;;;;;;;;;;5096189;28;20466;-73
2021/10/25 03:15:27;;;;;;;3.53;2.73;;;;;;;;;;5095860;28;20444;-73
2021/10/25 03:17:56;;;;;;;5.60;3.10;;;;;;;;;;5096866;28;20512;-74
2021/10/25 03:20:24;;;;;;;5.00;3.00;;;;;;;;;;5096589;28;20458;-74
2021/10/25 03:22:56;;;;;;;6.30;3.40;;;;;;;;;;5097101;28;20487;-73
2021/10/25 03:25:27;;;;;;;3.67;2.53;;;;;;;;;;5101155;28;20891;-74
2021/10/25 03:27:55;;;;;;;6.27;2.77;;;;;;;;;;5099628;28;20584;-74
2021/10/25 03:30:22;;;;;;;11.67;3.37;;;;;;;;;;5099453;28;20451;-74
2021/10/25 03:32:50;;;;;;;4.67;2.87;;;;;;;;;;5119118;28;20782;-74
2021/10/25 03:35:18;;;;;;;6.57;2.97;;;;;;;;;;5120106;28;20461;-74
2021/10/25 03:37:46;;;;;;;5.70;2.53;;;;;;;;;;5121904;28;20909;-74
2021/10/25 03:40:16;;;;;;;7.30;2.93;;;;;;;;;;5120676;28;20486;-74
2021/10/25 03:42:46;;;;;;;7.60;2.70;;;;;;;;;;5120465;28;20534;-74
2021/10/25 03:45:20;;;;;;;4.63;3.17;;;;;;;;;;5120215;28;20884;-74
2021/10/25 03:47:54;;;;;;;9.90;3.97;;;;;;;;;;5120821;28;20465;-74
2021/10/25 03:50:23;;;;;;;3.87;2.43;;;;;;;;;;5120016;28;20530;-74
2021/10/25 03:52:55;;;;;;;5.53;2.37;;;;;;;;;;5121540;28;20458;-74
2021/10/25 03:55:31;;;;;;;3.70;2.60;;;;;;;;;;5119955;28;20545;-74
2021/10/25 04:28:35;;;;;;;4.63;2.73;;;;;;;;;;5115026;27;20539;-74
2021/10/25 04:31:03;;;;;;;4.30;2.63;;;;;;;;;;5118889;28;20760;-74
2021/10/25 04:33:31;;;;;;;4.73;2.13;;;;;;;;;;5119041;28;20473;-73
2021/10/25 04:35:59;;;;;;;4.60;2.73;;;;;;;;;;5117912;28;20442;-74
2021/10/25 04:38:30;;;;;;;9.60;3.13;;;;;;;;;;5119200;28;20549;-74
2021/10/25 04:40:58;;;;;;;4.23;2.80;;;;;;;;;;5119247;28;20446;-74
2021/10/25 04:43:25;;;;;;;4.17;2.60;;;;;;;;;;5118070;28;20490;-74
2021/10/25 04:45:55;;;;;;;6.33;2.60;;;;;;;;;;5117896;28;20442;-74
2021/10/25 04:48:26;;;;;;;5.53;2.33;;;;;;;;;;5106994;28;20471;-74
2021/10/25 04:50:54;;;;;;;4.13;2.43;;;;;;;;;;5097742;28;20578;-74
2021/10/25 04:53:22;;;;;;;2.73;2.30;;;;;;;;;;5098390;28;20470;-74
2021/10/25 04:55:50;;;;;;;8.33;2.40;;;;;;;;;;5097794;28;20448;-74
2021/10/25 04:58:17;;;;;;;5.87;3.10;;;;;;;;;;5097984;28;20535;-74
2021/10/25 05:00:46;;;;;;;3.40;2.67;;;;;;;;;;5096990;28;20448;-74
2021/10/25 05:03:21;;;;;;;10.93;4.00;;;;;;;;;;5096866;28;20738;-74
2021/10/25 05:05:49;;;;;;;4.17;2.97;;;;;;;;;;5097615;28;20970;-74
2021/10/25 05:08:17;;;;;;;6.10;2.60;;;;;;;;;;5097871;28;20451;-74
2021/10/25 05:10:46;;;;;;;5.20;2.70;;;;;;;;;;5104132;28;20487;-74
2021/10/25 05:13:13;;;;;;;8.20;3.47;;;;;;;;;;5116904;28;20532;-75
2021/10/25 05:15:42;;;;;;;5.60;3.10;;;;;;;;;;5116914;28;20481;-74
2021/10/25 05:18:09;;;;;;;4.80;2.40;;;;;;;;;;5117717;28;20451;-74
2021/10/25 05:20:39;;;;;;;7.30;3.13;;;;;;;;;;5116955;28;20511;-74
2021/10/25 05:23:07;;;;;;;5.40;2.90;;;;;;;;;;5116467;28;20769;-74
2021/10/25 05:25:36;;;;;;;7.53;3.40;;;;;;;;;;5117330;28;20450;-74
2021/10/25 05:28:04;;;;;;;6.20;3.03;;;;;;;;;;5117162;28;20458;-74
2021/10/25 05:30:32;;;;;;;5.57;3.47;;;;;;;;;;5117051;28;20898;-74
2021/10/25 05:33:01;;;;;;;6.47;2.80;;;;;;;;;;5116276;28;20443;-74
2021/10/25 05:35:29;;;;;;;10.40;3.07;;;;;;;;;;5117227;28;20516;-74
2021/10/25 05:37:58;;;;;;;9.13;4.10;;;;;;;;;;5107086;28;20451;-75
2021/10/25 05:40:26;;;;;;;3.97;2.90;;;;;;;;;;5100393;28;20464;-73
2021/10/25 05:42:56;;;;;;;6.50;3.40;;;;;;;;;;5103439;28;20476;-74
2021/10/25 05:45:24;;;;;;;6.47;2.67;;;;;;;;;;5097409;28;21025;-74
2021/10/25 05:47:52;;;;;;;6.43;3.40;;;;;;;;;;5096773;28;20468;-74
2021/10/25 05:50:20;;;;;;;5.20;3.60;;;;;;;;;;5096823;28;20462;-74
2021/10/25 05:52:48;;;;;;;4.70;3.03;;;;;;;;;;5096058;28;20868;-74
2021/10/25 05:55:22;;;;;;;9.53;3.33;;;;;;;;;;5097399;28;20754;-74
2021/10/25 05:57:57;;;;;;;6.10;2.97;;;;;;;;;;5096063;28;20473;-74
2021/10/25 06:00:28;;;;;;;6.13;3.30;;;;;;;;;;5094969;28;20599;-74
2021/10/25 06:03:01;;;;;;;5.47;3.00;;;;;;;;;;5097062;28;20765;-75
2021/10/25 06:05:30;;;;;;;22.67;4.80;;;;;;;;;;5096202;28;20524;-73
2021/10/25 06:08:00;;;;;;;4.83;3.27;;;;;;;;;;5103604;28;20451;-74
2021/10/25 06:10:35;;;;;;;6.30;4.23;;;;;;;;;;5104005;28;20524;-75
2021/10/25 06:13:07;;;;;;;12.40;4.00;;;;;;;;;;5109372;28;20454;-74
2021/10/25 06:15:39;;;;;;;6.57;3.50;;;;;;;;;;5116168;28;20458;-74
2021/10/25 06:18:12;;;;;;;5.83;3.30;;;;;;;;;;5115420;28;20516;-74
2021/10/25 06:20:41;;;;;;;7.77;4.60;;;;;;;;;;5117320;28;21028;-74
2021/10/25 06:23:10;;;;;;;6.30;3.70;;;;;;;;;;5117210;28;20486;-74
2021/10/25 06:25:40;;;;;;;6.60;3.33;;;;;;;;;;5115654;28;20594;-75
2021/10/25 06:28:09;;;;;;;7.37;3.93;;;;;;;;;;5116755;28;20489;-73
2021/10/25 06:30:38;;;;;;;10.03;3.80;;;;;;;;;;5115588;28;20471;-74
2021/10/25 06:33:07;;;;;;;4.70;4.00;;;;;;;;;;5117555;28;21005;-74
2021/10/25 06:35:39;;;;;;;6.37;3.43;;;;;;;;;;5116467;28;20754;-74
2021/10/25 06:38:10;;;;;;;4.47;2.73;;;;;;;;;;5110425;27;20451;-74
2021/10/25 06:40:40;;;;;;;6.40;4.17;;;;;;;;;;5097424;28;20932;-74
2021/10/25 06:43:12;;;;;;;5.20;2.80;;;;;;;;;;5097868;28;20954;-74
2021/10/25 06:45:40;;;;;;;4.67;4.20;;;;;;;;;;5097939;28;20455;-74
2021/10/25 06:48:10;;;;;;;6.00;3.37;;;;;;;;;;5116530;28;20445;-74
2021/10/25 06:50:39;;;;;;;6.93;3.33;;;;;;;;;;5103008;28;20477;-74
2021/10/25 06:53:09;;;;;;;8.03;4.07;;;;;;;;;;5097626;28;20544;-73
2021/10/25 06:55:38;;;;;;;6.97;3.80;;;;;;;;;;5095688;28;20552;-74
2021/10/25 06:58:21;;;;;;;5.73;4.37;;;;;;;;;;5095974;28;20588;-74
2021/10/25 07:00:58;;;;;;;9.57;3.33;;;;;;;;;;5107038;28;20875;-73
2021/10/25 07:03:29;;;;;;;10.03;5.23;;;;;;;;;;5127484;28;20474;-74
2021/10/25 07:06:04;;;;;;;4.00;2.80;;;;;;;;;;5095575;28;20451;-72
2021/10/25 07:08:33;;;;;;;6.03;3.80;;;;;;;;;;5095826;28;20486;-73
2021/10/25 07:11:03;;;;;;;7.70;3.77;;;;;;;;;;5094439;28;20760;-74
2021/10/25 07:13:37;;;;;;;7.87;3.80;;;;;;;;;;5096022;28;20452;-72
2021/10/25 07:16:17;;;;;;;7.63;3.90;;;;;;;;;;5122281;28;20431;-73
2021/10/25 07:18:57;;;;;;;11.27;5.80;;;;;;;;;;5116696;27;20470;-73
2021/10/25 07:27:26;;;;;;;8.50;5.40;;;;;;;;;;5106862;28;20511;-72
2021/10/25 08:03:51;;;;;;;9.80;5.03;;;;;;;;;;5092440;28;20887;-73
2021/10/25 08:06:24;;;;;;;5.50;4.00;;;;;;;;;;5094571;28;20466;-73
2021/10/25 08:09:01;;;;;;;12.13;4.63;;;;;;;;;;5102559;28;20557;-73
2021/10/25 08:11:36;;;;;;;10.70;3.40;;;;;;;;;;5118581;28;20537;-72
2021/10/25 08:14:06;;;;;;;6.77;4.40;;;;;;;;;;5117885;28;20454;-72
2021/10/25 08:16:46;;;;;;;6.53;3.80;;;;;;;;;;5109223;28;20444;-73
2021/10/25 08:19:32;;;;;;;4.60;3.60;;;;;;;;;;5112694;28;20489;-73
2021/10/25 08:22:02;;;;;;;4.73;3.40;;;;;;;;;;5102573;28;20901;-73
2021/10/25 08:24:31;;;;;;;6.37;4.47;;;;;;;;;;5099104;28;20482;-72
2021/10/25 08:26:59;;;;;;;7.10;4.40;;;;;;;;;;5117633;28;20481;-73
2021/10/25 08:29:29;;;;;;;8.50;4.40;;;;;;;;;;5100033;28;20455;-73
2021/10/25 08:32:09;;;;;;;7.20;3.83;;;;;;;;;;5115120;28;20451;-73
2021/10/25 08:34:56;;;;;;;6.17;4.47;;;;;;;;;;5105989;28;20448;-73
2021/10/25 08:40:19;;;;;;;6.70;3.63;;;;;;;;;;5098795;28;20438;-73
2021/10/25 08:42:48;;;;;;;7.17;4.00;;;;;;;;;;5099662;28;20507;-73
2021/10/25 08:45:19;;;;;;;9.90;3.07;;;;;;;;;;5105885;28;20464;-74
2021/10/25 08:47:50;;;;;;;6.50;4.13;;;;;;;;;;5110084;28;20634;-73
2021/10/25 08:50:24;;;;;;;5.10;3.00;;;;;;;;;;5098891;28;20560;-73
2021/10/25 08:52:52;;;;;;;5.33;3.20;;;;;;;;;;5107717;28;20451;-73
2021/10/25 08:55:25;;;;;;;9.60;4.23;;;;;;;;;;5118431;28;20439;-72
2021/10/25 08:57:57;;;;;;;4.57;3.53;;;;;;;;;;5105503;28;20468;-74
2021/10/25 09:00:42;;;;;;;5.20;3.83;;;;;;;;;;5098593;28;20479;-74
2021/10/25 09:03:13;;;;;;;7.33;3.63;;;;;;;;;;5118034;28;20480;-74
2021/10/25 09:05:54;;;;;;;7.63;4.30;;;;;;;;;;5121649;27;20498;-73
2021/10/25 09:08:35;;;;;;;8.60;3.13;;;;;;;;;;5098812;28;20539;-74
2021/10/25 09:11:18;;;;;;;;;;;;;;;;;;;;;
2021/10/25 09:13:51;;;;;;;4.93;3.53;;;;;;;;;;5114000;28;20451;-75
2021/10/25 09:16:21;;;;;;;9.13;5.63;;;;;;;;;;5118921;28;20443;-73
2021/10/25 09:18:53;;;;;;;5.60;4.00;;;;;;;;;;5116655;28;20458;-73
2021/10/25 09:21:40;;;;;;;8.57;4.00;;;;;;;;;;5111057;28;20451;-75
2021/10/25 09:24:23;;;;;;;11.57;5.27;;;;;;;;;;5108600;27;20475;-72
2021/10/25 09:27:05;;;;;;;10.23;4.77;;;;;;;;;;5102736;28;20458;-73
2021/10/25 09:29:45;;;;;;;7.90;4.00;;;;;;;;;;5101765;28;20486;-75
2021/10/25 09:35:03;;;;;;;8.80;4.80;;;;;;;;;;5094412;28;20489;-73
2021/10/25 09:37:43;;;;;;;10.73;4.63;;;;;;;;;;5111602;28;20837;-73
2021/10/25 09:40:27;;;;;;;10.67;6.50;;;;;;;;;;5116147;28;20486;-73
2021/10/25 09:43:17;;;;;;;12.27;7.17;;;;;;;;;;5110368;28;20490;-74
2021/10/25 09:45:56;;;;;;;12.10;6.53;;;;;;;;;;5100751;28;20455;-74
2021/10/25 09:51:11;;;;;;;8.60;5.30;;;;;;;;;;5101773;28;20919;-73
2021/10/25 09:53:46;;;;;;;7.93;4.30;;;;;;;;;;5115687;28;20472;-73
2021/10/25 09:56:15;;;;;;;6.73;4.23;;;;;;;;;;5111689;28;20526;-72
2021/10/25 09:58:48;;;;;;;6.90;4.90;;;;;;;;;;5097125;28;20532;-74
2021/10/25 10:01:25;;;;;;;10.57;6.10;;;;;;;;;;5106478;28;20451;-73
2021/10/25 10:03:54;;;;;;;8.53;4.80;;;;;;;;;;5109683;28;20569;-72
2021/10/25 10:06:24;;;;;;;6.50;4.93;;;;;;;;;;5114023;28;20462;-74
2021/10/25 10:09:06;;;;;;;5.20;3.97;;;;;;;;;;5117045;28;20443;-73
2021/10/25 10:11:44;;;;;;;6.90;3.90;;;;;;;;;;5103859;28;20447;-73
2021/10/25 10:14:13;;;;;;;8.83;4.90;;;;;;;;;;5111859;27;20474;-73
2021/10/25 10:16:44;;;;;;;8.17;4.97;;;;;;;;;;5113582;27;20439;-72
2021/10/25 10:19:14;;;;;;;6.70;4.97;;;;;;;;;;5107541;28;20504;-73
2021/10/25 10:21:43;;;;;;;5.80;4.17;;;;;;;;;;5100788;28;20516;-73
2021/10/25 10:24:16;;;;;;;5.33;4.77;;;;;;;;;;5107674;28;20497;-73
2021/10/25 10:26:57;;;;;;;6.17;3.33;;;;;;;;;;5102713;28;20586;-73
2021/10/25 10:29:28;;;;;;;5.80;3.43;;;;;;;;;;5106374;28;20877;-73
2021/10/25 10:32:06;;;;;;;9.13;4.90;;;;;;;;;;5116895;28;20459;-72
2021/10/25 10:34:44;;;;;;;8.67;3.20;;;;;;;;;;5106281;28;20475;-73
2021/10/25 10:37:33;;;;;;;5.53;3.30;;;;;;;;;;5098107;28;20452;-73
2021/10/25 10:40:06;;;;;;;8.27;4.60;;;;;;;;;;5115359;28;20466;-72
2021/10/25 10:42:35;;;;;;;5.60;3.83;;;;;;;;;;5116732;28;20533;-73
2021/10/25 10:45:13;;;;;;;5.70;3.53;;;;;;;;;;5103764;28;21065;-74
2021/10/25 10:47:58;;;;;;;6.80;4.40;;;;;;;;;;5106438;28;20463;-75
2021/10/25 10:50:34;;;;;;;7.00;5.60;;;;;;;;;;5104741;28;20452;-73
2021/10/25 10:53:14;;;;;;;7.87;4.30;;;;;;;;;;5095125;28;20523;-74
2021/10/25 10:55:52;;;;;;;10.47;3.23;;;;;;;;;;5097597;28;20454;-73
2021/10/25 10:58:45;;;;;;;4.03;2.90;;;;;;;;;;5100414;28;20456;-74
2021/10/25 11:01:28;;;;;;;6.90;3.60;;;;;;;;;;5102501;28;20452;-74
2021/10/25 11:03:59;;;;;;;7.07;3.50;;;;;;;;;;5096011;28;20560;-73
2021/10/25 11:06:33;;;;;;;5.57;3.53;;;;;;;;;;5104968;28;20704;-74
2021/10/25 11:09:09;;;;;;;5.73;3.60;;;;;;;;;;5105384;28;20455;-74
2021/10/25 11:11:47;;;;;;;6.73;5.00;;;;;;;;;;5096235;28;21053;-74
2021/10/25 11:14:18;;;;;;;13.33;4.97;;;;;;;;;;5095701;28;20739;-74
2021/10/25 11:16:57;;;;;;;8.73;3.50;;;;;;;;;;5094985;28;20493;-73
2021/10/25 11:20:04;;;;;;;8.47;3.50;;;;;;;;;;5094781;28;20780;-73
2021/10/25 11:22:45;;;;;;;10.40;3.30;;;;;;;;;;5098846;28;20459;-74
2021/10/25 11:25:13;;;;;;;6.07;2.60;;;;;;;;;;5095315;28;20479;-74
2021/10/25 11:27:51;;;;;;;6.03;4.03;;;;;;;;;;5106150;28;20776;-74
2021/10/25 11:33:14;;;;;;;4.53;3.30;;;;;;;;;;5098157;28;20881;-73
2021/10/25 11:35:52;;;;;;;5.07;3.27;;;;;;;;;;5108548;28;20796;-75
2021/10/25 11:38:33;;;;;;;4.40;3.00;;;;;;;;;;5095587;28;21059;-76
2021/10/25 11:41:05;;;;;;;3.23;2.40;;;;;;;;;;5102371;28;20454;-72
2021/10/25 11:43:37;;;;;;;7.93;2.70;;;;;;;;;;5116438;28;20526;-73
2021/10/25 11:46:16;;;;;;;7.63;4.10;;;;;;;;;;5112429;28;20444;-72
2021/10/25 11:48:52;;;;;;;4.70;3.30;;;;;;;;;;5119869;28;20474;-73
2021/10/25 11:51:26;;;;;;;11.00;6.50;;;;;;;;;;5116778;28;20828;-73
2021/10/25 11:53:56;;;;;;;5.87;4.03;;;;;;;;;;5099078;28;20503;-73
2021/10/25 11:56:29;;;;;;;7.70;3.33;;;;;;;;;;5099608;28;20448;-72
2021/10/25 11:59:04;;;;;;;13.07;4.27;;;;;;;;;;5099729;28;20479;-73
2021/10/25 12:01:32;;;;;;;8.50;4.77;;;;;;;;;;5103841;28;20459;-74
2021/10/25 12:04:13;;;;;;;8.13;4.33;;;;;;;;;;5111599;28;20874;-73
2021/10/25 12:06:57;;;;;;;9.83;5.57;;;;;;;;;;5109797;28;20505;-73
2021/10/25 12:09:32;;;;;;;6.70;4.40;;;;;;;;;;5106085;28;20458;-73
2021/10/25 12:12:08;;;;;;;6.83;5.07;;;;;;;;;;5109175;28;20446;-73
2021/10/25 12:14:39;;;;;;;3.93;2.53;;;;;;;;;;5097506;28;20447;-74
2021/10/25 12:17:11;;;;;;;8.80;3.37;;;;;;;;;;5103358;28;20442;-73
2021/10/25 12:19:44;;;;;;;6.70;3.90;;;;;;;;;;5098856;28;20435;-73
2021/10/25 12:22:13;;;;;;;9.70;3.60;;;;;;;;;;5117878;28;20770;-73
2021/10/25 12:24:42;;;;;;;4.30;2.23;;;;;;;;;;5107437;28;20483;-74
2021/10/25 12:27:13;;;;;;;8.03;3.20;;;;;;;;;;5097461;28;20550;-73
2021/10/25 12:29:43;;;;;;;4.67;2.47;;;;;;;;;;5097111;28;20451;-74
2021/10/25 12:32:14;;;;;;;4.77;3.50;;;;;;;;;;5098605;28;20898;-72
2021/10/25 12:35:10;;;;;;;6.60;2.80;;;;;;;;;;5098205;28;20448;-72
2021/10/25 12:37:56;;;;;;;5.57;2.80;;;;;;;;;;5076903;27;20509;-73
2021/10/25 12:40:25;;;;;;;4.83;2.47;;;;;;;;;;5095628;28;20463;-72
2021/10/25 12:43:09;;;;;;;7.50;3.83;;;;;;;;;;5097126;28;20924;-73
2021/10/25 12:45:50;;;;;;;4.47;2.60;;;;;;;;;;5117344;28;20515;-73
2021/10/25 12:48:21;;;;;;;5.50;2.87;;;;;;;;;;5097435;28;20452;-73
2021/10/25 12:51:02;;;;;;;8.30;3.60;;;;;;;;;;5097064;28;20902;-73
2021/10/25 12:53:32;;;;;;;7.10;2.70;;;;;;;;;;5097052;28;20558;-73
2021/10/25 12:56:03;;;;;;;13.03;2.93;;;;;;;;;;5095802;28;20517;-73
2021/10/25 12:58:34;;;;;;;5.13;3.77;;;;;;;;;;5107449;28;20691;-73
2021/10/25 13:01:18;;;;;;;7.50;3.63;;;;;;;;;;5110788;28;20482;-72
2021/10/25 13:03:50;;;;;;;5.03;3.40;;;;;;;;;;5105200;28;20443;-74
2021/10/25 13:06:19;;;;;;;5.57;3.63;;;;;;;;;;5095667;28;20736;-73
2021/10/25 13:08:46;;;;;;;8.00;3.70;;;;;;;;;;5103187;28;20703;-74
2021/10/25 13:11:27;;;;;;;4.93;2.50;;;;;;;;;;5102573;28;20896;-73
2021/10/25 13:14:01;;;;;;;9.77;2.90;;;;;;;;;;5097240;28;20479;-72
2021/10/25 13:16:41;;;;;;;12.33;5.00;;;;;;;;;;5095071;28;20456;-71
2021/10/25 13:19:12;;;;;;;3.40;2.67;;;;;;;;;;5096062;28;20550;-75
2021/10/25 13:21:45;;;;;;;4.43;2.10;;;;;;;;;;5096872;28;20474;-74
2021/10/25 13:24:19;;;;;;;4.43;2.63;;;;;;;;;;5095816;28;21073;-73
2021/10/25 13:26:49;;;;;;;4.00;2.50;;;;;;;;;;5095241;28;21158;-72
2021/10/25 13:29:17;;;;;;;3.63;2.30;;;;;;;;;;5095745;28;20756;-73
2021/10/25 13:31:46;;;;;;;4.57;2.40;;;;;;;;;;5095497;28;20539;-73
2021/10/25 13:34:18;;;;;;;11.07;3.00;;;;;;;;;;5098323;28;20487;-73
2021/10/25 13:36:46;;;;;;;5.17;2.67;;;;;;;;;;5095480;28;20447;-72
2021/10/25 13:39:16;;;;;;;5.67;2.27;;;;;;;;;;5099930;28;20822;-73
2021/10/25 13:41:49;;;;;;;4.00;2.30;;;;;;;;;;5123841;27;20541;-73
2021/10/25 13:44:24;;;;;;;7.20;2.97;;;;;;;;;;5111560;27;20478;-72
2021/10/25 13:47:05;;;;;;;5.57;3.07;;;;;;;;;;5123491;27;20442;-73
2021/10/25 13:49:42;;;;;;;3.80;2.10;;;;;;;;;;5114376;27;20486;-74
2021/10/25 13:52:17;;;;;;;5.93;2.77;;;;;;;;;;5109164;27;20959;-73
2021/10/25 13:54:47;;;;;;;4.67;2.90;;;;;;;;;;5100609;28;20451;-74
2021/10/25 13:57:39;;;;;;;6.50;2.47;;;;;;;;;;5096118;28;20465;-73
2021/10/25 14:00:15;;;;;;;5.43;3.40;;;;;;;;;;5109374;28;20450;-74
2021/10/25 14:02:56;;;;;;;7.60;3.17;;;;;;;;;;5103408;28;20466;-73
2021/10/25 14:05:30;;;;;;;5.80;3.03;;;;;;;;;;5096825;28;20536;-72
2021/10/25 14:07:59;;;;;;;9.20;3.10;;;;;;;;;;5098272;28;20458;-75
2021/10/25 14:10:35;;;;;;;6.90;2.97;;;;;;;;;;5111202;28;20443;-74
2021/10/25 14:13:24;;;;;;;3.97;2.57;;;;;;;;;;5099224;28;20454;-74
2021/10/25 14:16:09;;;;;;;28.13;2.97;;;;;;;;;;5110993;28;20488;-74
2021/10/25 14:18:37;;;;;;;5.10;2.77;;;;;;;;;;5103194;28;20450;-74
2021/10/25 14:21:07;;;;;;;4.53;3.20;;;;;;;;;;5110935;28;20473;-74
2021/10/25 14:23:48;;;;;;;10.00;5.00;;;;;;;;;;5105564;28;20455;-73
2021/10/25 14:26:17;;;;;;;5.73;3.43;;;;;;;;;;5101656;28;20467;-73
2021/10/25 14:29:12;;;;;;;5.03;3.53;;;;;;;;;;5104638;28;20463;-74
2021/10/25 14:31:44;;;;;;;8.00;4.23;;;;;;;;;;5103455;28;20467;-74
2021/10/25 14:34:14;;;;;;;7.77;5.50;;;;;;;;;;5115575;28;20512;-73
2021/10/25 14:36:50;;;;;;;7.60;3.87;;;;;;;;;;5101590;28;20451;-73
2021/10/25 14:39:34;;;;;;;3.73;3.07;;;;;;;;;;5099143;28;20455;-74
2021/10/25 14:42:07;;;;;;;5.30;3.20;;;;;;;;;;5113954;28;20854;-72
2021/10/25 14:44:55;;;;;;;6.43;4.13;;;;;;;;;;5104519;28;20487;-73
2021/10/25 14:53:36;;;;;;;7.60;3.23;;;;;;;;;;5098425;28;20438;-73
2021/10/25 14:56:09;;;;;;;6.20;3.87;;;;;;;;;;5103203;28;20475;-72
2021/10/25 14:58:40;;;;;;;6.23;4.00;;;;;;;;;;5114952;28;20455;-72
2021/10/25 15:01:12;;;;;;;8.43;4.70;;;;;;;;;;5108873;28;20531;-73
2021/10/25 15:06:34;;;;;;;10.30;5.50;;;;;;;;;;5093091;28;20483;-72
2021/10/25 15:09:09;;;;;;;8.17;4.53;;;;;;;;;;5096614;28;20447;-73
2021/10/25 15:11:38;;;;;;;7.60;4.13;;;;;;;;;;5106636;28;20488;-73
2021/10/25 15:14:11;;;;;;;8.53;5.70;;;;;;;;;;5094195;28;20867;-71
2021/10/25 15:16:39;;;;;;;9.87;4.90;;;;;;;;;;5095339;28;20444;-72
2021/10/25 15:19:09;;;;;;;9.50;5.40;;;;;;;;;;5096412;28;20539;-72
2021/10/25 15:21:42;;;;;;;10.57;3.67;;;;;;;;;;5116367;28;20438;-71
2021/10/25 15:24:12;;;;;;;7.90;3.80;;;;;;;;;;5100719;28;20852;-71
2021/10/25 15:26:45;;;;;;;15.27;6.90;;;;;;;;;;5107611;28;20543;-72
2021/10/25 15:29:13;;;;;;;9.10;5.57;;;;;;;;;;5106841;28;20899;-73
2021/10/25 15:31:41;;;;;;;8.67;4.37;;;;;;;;;;5105545;28;20455;-74
2021/10/25 15:34:09;;;;;;;10.00;6.47;;;;;;;;;;5117540;28;20549;-73
2021/10/25 15:36:37;;;;;;;14.20;5.33;;;;;;;;;;5101741;28;20538;-73
2021/10/25 15:39:06;;;;;;;8.80;5.70;;;;;;;;;;5100108;28;20897;-72
2021/10/25 15:41:38;;;;;;;14.00;6.20;;;;;;;;;;5097895;28;20477;-72
2021/10/25 15:44:16;;;;;;;7.60;3.43;;;;;;;;;;5103872;28;20462;-73
2021/10/25 15:46:48;;;;;;;5.40;4.33;;;;;;;;;;5103378;28;20511;-72
2021/10/25 15:49:19;;;;;;;6.80;4.40;;;;;;;;;;5102494;28;20448;-73
2021/10/25 15:52:15;;;;;;;;;;;;;;;;;;;;;
2021/10/25 15:54:45;;;;;;;9.63;6.67;;;;;;;;;;5104806;28;20750;-74
2021/10/25 15:57:40;;;;;;;4.77;3.40;;;;;;;;;;5109694;28;21030;-74
2021/10/25 16:00:14;;;;;;;10.60;5.40;;;;;;;;;;5096429;28;20895;-72
2021/10/25 16:02:56;;;;;;;9.20;5.50;;;;;;;;;;5118448;28;20809;-74
2021/10/25 16:05:27;;;;;;;8.60;5.10;;;;;;;;;;5106246;27;20990;-73
2021/10/25 16:08:05;;;;;;;9.60;5.47;;;;;;;;;;5113146;27;20736;-73
2021/10/25 16:10:33;;;;;;;19.20;6.50;;;;;;;;;;5097536;28;20517;-73
2021/10/25 16:13:02;;;;;;;16.03;9.77;;;;;;;;;;5098497;28;20439;-74
2021/10/25 16:18:15;;;;;;;8.93;5.67;;;;;;;;;;5081290;28;20452;-72
2021/10/25 16:21:09;;;;;;;7.63;5.43;;;;;;;;;;5096085;28;20780;-72
2021/10/25 16:23:37;;;;;;;7.17;5.00;;;;;;;;;;5097857;28;20447;-71
2021/10/25 16:26:05;;;;;;;12.37;6.17;;;;;;;;;;5106510;28;20475;-72
2021/10/25 16:28:34;;;;;;;13.63;5.80;;;;;;;;;;5119042;28;20465;-71
2021/10/25 16:31:03;;;;;;;10.60;6.10;;;;;;;;;;5099442;28;20444;-73
2021/10/25 16:33:31;;;;;;;7.30;3.93;;;;;;;;;;5108511;27;20451;-73
2021/10/25 16:36:00;;;;;;;10.43;6.20;;;;;;;;;;5118076;28;20511;-72
2021/10/25 16:38:28;;;;;;;10.83;5.70;;;;;;;;;;5100841;28;20528;-73
2021/10/25 16:40:56;;;;;;;11.23;6.43;;;;;;;;;;5096919;28;20528;-71
2021/10/25 16:43:28;;;;;;;11.63;6.00;;;;;;;;;;5098089;28;20550;-73
2021/10/25 16:45:58;;;;;;;11.07;5.27;;;;;;;;;;5099405;28;20907;-71
2021/10/25 16:48:31;;;;;;;12.40;7.13;;;;;;;;;;5104657;28;20646;-73